Time;durP1;ratioP1;P1;durP2;ratioP2;P2;SDS_P1;SDS_P2;PMS_P1;PMS_P2;Temp;Humidity;BMP_temperature;BMP_pressure;BME280_temperature;BME280_humidity;BME280_pressure;Samples;Min_cycle;Max_cycle;Signal;HPM_P1;HPM_P2
2022/12/21 00:05:56;;;;;;;1999.90;999.90;;;12.30;99.90;;;;;;6702446;88;20216;-77
2022/12/21 00:16:03;;;;;;;1999.90;999.90;;;12.00;99.90;;;;;;6707747;88;20220;-77
2022/12/21 00:26:05;;;;;;;1999.90;999.90;;;11.70;99.90;;;;;;6700847;88;20232;-77
2022/12/21 00:36:09;;;;;;;1999.90;999.90;;;11.50;99.90;;;;;;6704404;88;20203;-76
2022/12/21 00:46:27;;;;;;;1999.90;999.90;;;11.30;99.90;;;;;;6700640;88;20193;-76
2022/12/21 00:56:28;;;;;;;1999.90;999.90;;;11.30;99.90;;;;;;6705324;88;20179;-75
2022/12/21 01:06:33;;;;;;;1999.90;999.90;;;11.10;99.90;;;;;;6704723;88;20209;-76
2022/12/21 01:16:34;;;;;;;1999.90;999.90;;;11.00;99.90;;;;;;6701380;88;20193;-78
2022/12/21 01:26:34;;;;;;;1999.90;999.90;;;11.00;99.90;;;;;;6704590;88;20509;-77
2022/12/21 01:36:35;;;;;;;1999.90;999.90;;;11.00;99.90;;;;;;6703997;88;20699;-76
2022/12/21 01:46:42;;;;;;;1999.90;999.90;;;11.00;99.90;;;;;;6704477;88;20199;-76
2022/12/21 01:56:46;;;;;;;1999.90;999.90;;;11.00;99.90;;;;;;6703631;88;20283;-78
2022/12/21 02:06:55;;;;;;;1999.90;999.90;;;10.90;99.90;;;;;;6703812;88;20197;-77
2022/12/21 02:17:10;;;;;;;1999.90;999.90;;;11.10;99.90;;;;;;6704480;88;20204;-77
2022/12/21 02:27:23;;;;;;;1999.90;999.90;;;11.20;99.90;;;;;;6700004;88;20319;-77
2022/12/21 02:37:34;;;;;;;1999.90;999.90;;;11.20;99.90;;;;;;6703207;88;20346;-76
2022/12/21 02:47:44;;;;;;;1999.90;999.90;;;10.90;99.90;;;;;;6705743;88;20216;-77
2022/12/21 02:57:45;;;;;;;1999.90;999.90;;;10.80;99.90;;;;;;6707893;88;20182;-77
2022/12/21 03:08:28;;;;;;;1999.90;999.90;;;10.60;99.90;;;;;;6700867;88;20250;-77
2022/12/21 03:18:47;;;;;;;1999.90;999.90;;;10.50;99.90;;;;;;6702655;88;20186;-77
2022/12/21 03:28:50;;;;;;;1999.90;999.90;;;10.20;99.90;;;;;;6695557;88;20202;-77
2022/12/21 03:38:59;;;;;;;1999.90;999.90;;;10.00;99.90;;;;;;6703301;88;20328;-76
2022/12/21 03:49:04;;;;;;;1999.90;999.90;;;10.20;99.90;;;;;;6704090;88;20206;-78
2022/12/21 03:59:07;;;;;;;1999.90;999.90;;;10.00;99.90;;;;;;6687737;88;20211;-77
2022/12/21 04:09:08;;;;;;;1999.90;999.90;;;10.20;99.90;;;;;;6687789;88;20240;-77
2022/12/21 04:29:28;;;;;;;1999.90;999.90;;;10.10;99.90;;;;;;6687766;88;20740;-77
2022/12/21 04:39:29;;;;;;;1999.90;999.90;;;10.10;99.90;;;;;;6688600;88;20279;-75
2022/12/21 04:49:29;;;;;;;1999.90;999.90;;;10.00;99.90;;;;;;6687734;88;20233;-77
2022/12/21 04:59:30;;;;;;;1999.90;999.90;;;10.00;99.90;;;;;;6689999;88;20202;-77
2022/12/21 05:09:30;;;;;;;1999.90;999.90;;;10.10;99.90;;;;;;6710502;77;20283;-74
2022/12/21 05:19:31;;;;;;;1999.90;999.90;;;10.00;99.90;;;;;;6722120;88;20232;-74
2022/12/21 05:29:31;;;;;;;1999.90;999.90;;;10.00;99.90;;;;;;6723760;88;22893;-74
2022/12/21 05:39:32;;;;;;;1999.90;999.90;;;10.00;99.90;;;;;;6724232;88;20652;-74
2022/12/21 05:49:32;;;;;;;1999.90;999.90;;;10.00;99.90;;;;;;6722420;88;20631;-74
2022/12/21 05:59:33;;;;;;;1999.90;999.90;;;10.00;99.90;;;;;;6720687;88;20791;-74
2022/12/21 06:09:33;;;;;;;1999.90;999.90;;;10.10;99.90;;;;;;6722870;88;20355;-74
2022/12/21 06:19:34;;;;;;;1999.90;999.90;;;10.10;99.90;;;;;;6730631;88;20300;-74
2022/12/21 06:29:34;;;;;;;1999.90;999.90;;;10.00;99.90;;;;;;6723014;88;20195;-76
2022/12/21 06:39:35;;;;;;;1999.90;999.90;;;10.00;99.90;;;;;;6724794;88;20185;-75
2022/12/21 06:49:36;;;;;;;1999.90;999.90;;;9.90;99.90;;;;;;6726929;88;20247;-78
2022/12/21 06:59:36;;;;;;;1999.90;999.90;;;9.90;99.90;;;;;;6728575;88;20574;-77
2022/12/21 07:09:37;;;;;;;1999.90;999.90;;;10.10;99.90;;;;;;6730848;88;20200;-75
2022/12/21 07:19:37;;;;;;;1999.90;999.90;;;10.20;99.90;;;;;;6723805;88;20693;-76
2022/12/21 07:29:38;;;;;;;1999.90;999.90;;;10.20;99.90;;;;;;6725298;88;20249;-75
2022/12/21 07:39:39;;;;;;;1999.90;999.90;;;10.10;99.90;;;;;;6725789;88;20192;-76
2022/12/21 07:49:39;;;;;;;1999.90;999.90;;;10.10;99.90;;;;;;6722691;88;20202;-75
2022/12/21 07:59:40;;;;;;;1999.90;999.90;;;10.10;99.90;;;;;;6723485;88;20386;-75
2022/12/21 08:09:40;;;;;;;1999.90;999.90;;;10.10;99.90;;;;;;6731098;88;20202;-75
2022/12/21 08:19:41;;;;;;;1999.90;999.90;;;10.20;99.90;;;;;;6732172;88;20268;-75
2022/12/21 08:29:41;;;;;;;1999.90;999.90;;;10.20;99.90;;;;;;6724637;88;20229;-75
2022/12/21 08:39:42;;;;;;;1999.90;999.90;;;10.20;99.90;;;;;;6721192;88;20208;-74
2022/12/21 08:49:42;;;;;;;1999.90;999.90;;;10.30;99.90;;;;;;6723057;88;20667;-74
2022/12/21 08:59:43;;;;;;;1999.90;999.90;;;10.30;99.90;;;;;;6724996;88;20374;-74
2022/12/21 09:09:44;;;;;;;1999.90;999.90;;;10.60;99.90;;;;;;6721267;88;20234;-75
2022/12/21 09:19:45;;;;;;;1999.90;999.90;;;10.90;99.90;;;;;;6724592;88;20193;-74
2022/12/21 09:29:45;;;;;;;1999.90;999.90;;;11.20;99.90;;;;;;6723784;88;20273;-75
2022/12/21 09:39:46;;;;;;;1999.90;999.90;;;11.40;99.90;;;;;;6721241;88;20252;-75
2022/12/21 09:49:57;;;;;;;1999.90;999.90;;;11.60;99.90;;;;;;6717324;88;20336;-74
2022/12/21 09:59:58;;;;;;;1999.90;999.90;;;11.40;99.90;;;;;;6718998;88;20220;-74
2022/12/21 10:10:22;;;;;;;1999.90;999.90;;;11.30;99.90;;;;;;6721323;88;20373;-74
2022/12/21 10:21:01;;;;;;;1999.90;999.90;;;12.30;99.90;;;;;;6724145;88;20174;-74
2022/12/21 10:31:07;;;;;;;1999.90;999.90;;;12.80;99.90;;;;;;6719932;88;20577;-74
2022/12/21 10:41:15;;;;;;;1999.90;999.90;;;12.70;99.90;;;;;;6721576;88;20214;-73
2022/12/21 10:51:28;;;;;;;1999.90;999.90;;;12.60;99.90;;;;;;6718904;88;20327;-76
2022/12/21 11:01:29;;;;;;;1999.90;999.90;;;11.90;99.90;;;;;;6721582;88;20182;-75
2022/12/21 11:11:38;;;;;;;1999.90;999.90;;;11.50;99.90;;;;;;6704718;77;20248;-73
2022/12/21 11:21:49;;;;;;;1999.90;999.90;;;11.30;99.90;;;;;;6634713;88;20224;-75
2022/12/21 11:31:52;;;;;;;1999.90;999.90;;;11.40;99.90;;;;;;6633747;88;20658;-73
2022/12/21 11:41:54;;;;;;;1999.90;999.90;;;11.90;99.90;;;;;;6635962;88;20295;-76
2022/12/21 11:51:59;;;;;;;1999.90;999.90;;;12.70;99.90;;;;;;6627245;88;20700;-74
2022/12/21 12:02:27;;;;;;;1999.90;999.90;;;13.80;99.90;;;;;;6628217;88;20181;-76
2022/12/21 12:12:55;;;;;;;1999.90;999.90;;;14.50;99.90;;;;;;6629798;88;20250;-77
2022/12/21 12:23:22;;;;;;;1999.90;999.90;;;13.60;99.90;;;;;;6628390;88;20185;-76
2022/12/21 12:33:43;;;;;;;1999.90;999.90;;;12.80;99.90;;;;;;6623292;88;20212;-75
2022/12/21 12:44:09;;;;;;;1999.90;999.90;;;12.50;99.90;;;;;;6627044;88;20187;-75
2022/12/21 12:54:46;;;;;;;1999.90;999.90;;;13.30;99.90;;;;;;6628010;88;20205;-77
2022/12/21 13:05:11;;;;;;;1999.90;999.90;;;14.20;99.90;;;;;;6625371;88;20190;-73
2022/12/21 13:15:37;;;;;;;1999.90;999.90;;;14.10;99.90;;;;;;6631156;88;20763;-75
2022/12/21 13:26:02;;;;;;;1999.90;999.90;;;13.10;99.90;;;;;;6625218;88;20212;-77
2022/12/21 13:36:09;;;;;;;1999.90;999.90;;;12.60;99.90;;;;;;6631831;88;20199;-76
2022/12/21 13:46:11;;;;;;;1999.90;999.90;;;12.40;99.90;;;;;;6628665;88;20251;-76
2022/12/21 13:56:27;;;;;;;1999.90;999.90;;;12.40;99.90;;;;;;6633797;88;20232;-75
2022/12/21 14:06:37;;;;;;;1999.90;999.90;;;12.30;99.90;;;;;;6629164;88;20205;-75
2022/12/21 14:16:38;;;;;;;1999.90;999.90;;;12.10;99.90;;;;;;6633120;88;20211;-75
2022/12/21 14:26:59;;;;;;;1999.90;999.90;;;11.90;99.90;;;;;;6632453;88;20711;-74
2022/12/21 14:37:09;;;;;;;1999.90;999.90;;;11.80;99.90;;;;;;6633011;88;20185;-75
2022/12/21 14:47:12;;;;;;;1999.90;999.90;;;11.70;99.90;;;;;;6636807;88;20237;-75
2022/12/21 14:57:12;;;;;;;1999.90;999.90;;;11.50;99.90;;;;;;6654555;88;20241;-75
2022/12/21 15:07:23;;;;;;;1999.90;999.90;;;11.40;99.90;;;;;;6641469;88;20221;-73
2022/12/21 15:17:31;;;;;;;1999.90;999.90;;;11.20;99.90;;;;;;6637852;88;20320;-74
2022/12/21 15:27:44;;;;;;;1999.90;999.90;;;11.10;99.90;;;;;;6635389;88;20266;-70
2022/12/21 15:37:46;;;;;;;1999.90;999.90;;;10.90;99.90;;;;;;6651356;88;20202;-75
2022/12/21 15:48:02;;;;;;;1999.90;999.90;;;10.60;99.90;;;;;;6633721;88;20235;-74
2022/12/21 15:58:26;;;;;;;1999.90;999.90;;;10.60;99.90;;;;;;6636321;88;20215;-74
2022/12/21 16:08:26;;;;;;;1999.90;999.90;;;10.40;99.90;;;;;;6631010;88;20184;-73
2022/12/21 16:18:36;;;;;;;1999.90;999.90;;;10.20;99.90;;;;;;6613038;89;20235;-73
2022/12/21 16:28:40;;;;;;;1999.90;999.90;;;10.10;99.90;;;;;;6614507;88;21062;-74
2022/12/21 16:38:41;;;;;;;1999.90;999.90;;;10.00;99.90;;;;;;6614607;88;21105;-73
2022/12/21 16:48:43;;;;;;;1999.90;999.90;;;10.00;99.90;;;;;;6620266;88;20185;-74
2022/12/21 16:58:53;;;;;;;1999.90;999.90;;;10.00;99.90;;;;;;6619434;88;20632;-74
2022/12/21 17:08:53;;;;;;;1999.90;999.90;;;10.10;99.90;;;;;;6615985;88;20266;-74
2022/12/21 17:19:14;;;;;;;1999.90;999.90;;;10.10;99.90;;;;;;6627988;77;20606;-76
2022/12/21 17:29:15;;;;;;;1999.90;999.90;;;10.10;99.90;;;;;;6635645;88;20206;-73
2022/12/21 17:39:18;;;;;;;1999.90;999.90;;;10.30;99.90;;;;;;6623284;88;20205;-74
2022/12/21 17:49:19;;;;;;;1999.90;999.90;;;10.30;99.90;;;;;;6617565;88;20196;-74
2022/12/21 17:59:20;;;;;;;1999.90;999.90;;;10.30;99.90;;;;;;6617047;89;20198;-74
2022/12/21 18:09:20;;;;;;;1999.90;999.90;;;10.40;99.90;;;;;;6613114;88;20245;-73
2022/12/21 18:19:21;;;;;;;1999.90;999.90;;;10.30;99.90;;;;;;6637625;88;20353;-73
2022/12/21 18:29:23;;;;;;;1999.90;999.90;;;10.10;99.90;;;;;;6600748;88;20319;-74
2022/12/21 18:39:24;;;;;;;1999.90;999.90;;;10.10;99.90;;;;;;6629404;89;22996;-74
2022/12/21 18:49:25;;;;;;;1999.90;999.90;;;9.90;99.90;;;;;;6618521;88;20222;-74
2022/12/21 18:59:26;;;;;;;1999.90;999.90;;;9.50;99.90;;;;;;6619456;88;20330;-74
2022/12/21 19:09:27;;;;;;;1999.90;999.90;;;9.60;99.90;;;;;;6607258;88;20268;-75
2022/12/21 19:19:30;;;;;;;1999.90;999.90;;;9.50;99.90;;;;;;6608824;88;20353;-76
2022/12/21 19:29:30;;;;;;;1999.90;999.90;;;9.70;99.90;;;;;;6634329;88;20617;-74
2022/12/21 19:39:42;;;;;;;1999.90;999.90;;;9.70;99.90;;;;;;6630275;88;20231;-74
2022/12/21 19:49:43;;;;;;;1999.90;999.90;;;9.80;99.90;;;;;;6622101;88;20222;-75
2022/12/21 19:59:44;;;;;;;1999.90;999.90;;;9.80;99.90;;;;;;6642227;88;21232;-76
2022/12/21 20:09:44;;;;;;;1999.90;999.90;;;10.00;99.90;;;;;;6630820;88;20233;-75
2022/12/21 20:19:45;;;;;;;1999.90;999.90;;;10.00;99.90;;;;;;6611687;88;20214;-75
2022/12/21 20:29:46;;;;;;;1999.90;999.90;;;9.80;99.90;;;;;;6630949;88;20209;-76
2022/12/21 20:39:48;;;;;;;1999.90;999.90;;;9.60;99.90;;;;;;6617627;89;20210;-75
2022/12/21 20:49:49;;;;;;;1999.90;999.90;;;9.50;99.90;;;;;;6621864;89;20227;-74
2022/12/21 20:59:49;;;;;;;1999.90;999.90;;;10.00;99.90;;;;;;6620234;89;20576;-75
2022/12/21 21:09:50;;;;;;;1999.90;999.90;;;10.00;99.90;;;;;;6603741;88;20768;-74
2022/12/21 21:19:52;;;;;;;1999.90;999.90;;;10.00;99.90;;;;;;6604072;88;20335;-74
2022/12/21 21:29:53;;;;;;;1999.90;999.90;;;10.00;99.90;;;;;;6634516;88;20183;-76
2022/12/21 21:50:24;;;;;;;1999.90;999.90;;;10.20;99.90;;;;;;6618206;88;21064;-75
2022/12/21 22:00:25;;;;;;;1999.90;999.90;;;10.20;99.90;;;;;;6629841;88;20804;-75
2022/12/21 22:10:33;;;;;;;1999.90;999.90;;;10.20;99.90;;;;;;6620173;88;20198;-75
2022/12/21 22:51:31;;;;;;;1999.90;999.90;;;10.00;99.90;;;;;;6614912;89;20191;-75
2022/12/21 23:01:33;;;;;;;1999.90;999.90;;;10.10;99.90;;;;;;6605355;89;20336;-75
2022/12/21 23:11:42;;;;;;;1999.90;999.90;;;10.00;99.90;;;;;;6617538;88;20202;-75
